Bocaiuva do Sul, Brazil
Current Conditions -  °F | °C
As of 7:00 AM on Sunday 23 Nov 2014 (Local Time) from SBBI Reporting Station
Haze Haze  
Wind Chill: 64°   Ceiling: 300
Heat Index: 64°   Visibility: 3mi
Dew Point: 63°   Wind: 8mph
Humidity: 94%   Direction: 160°SSE
Pressure: 30"   Gusts: NA
Location:  25.21°S, 49.11°W
Report Text: SBBI 230900Z 16007KT 5000 BR SCT002 BKN003 OVC004 18/17 Q1016
Loading
Personal Weather Stations






























Interactive Weather Map New forecast layout! Learn more

10-Day Weather Forecast

Advertisements
Track Severe Weather on mobile